Terminal Aerodrome Forecast
Issued by NWS

Home | Current Version | Previous Version | Graphics & Text | Print | Product List | Glossary Off
Versions: 1 2 3 4 5 6 7 8 9 10 11 12 13 14 15 16 17 18 19 20 21 22 23 24 25 26 27 28 29 30 31 32

842
FTUS43 KDDC 251742 RRA
TAFHYS
TAF
KHYS 251742Z 2518/2618 35012KT P6SM OVC020
     FM252100 35012KT P6SM BKN050
     FM252300 31010KT P6SM BKN080=

USA.gov is the U.S. government's official web portal to all federal, state and local government web resources and services.